Time;durP1;ratioP1;P1;durP2;ratioP2;P2;SDS_P1;SDS_P2;PMS_P1;PMS_P2;Temp;Humidity;BMP_temperature;BMP_pressure;BME280_temperature;BME280_humidity;BME280_pressure;Samples;Min_cycle;Max_cycle;Signal;HPM_P1;HPM_P2
2021/06/06 00:01:16;;;;;;;197.38;62.60;;;13.90;99.90;;;;;;5044864;28;20075;-64
2021/06/06 00:03:46;;;;;;;200.20;63.47;;;13.90;99.90;;;;;;5045264;28;20041;-64
2021/06/06 00:06:25;;;;;;;188.48;59.22;;;13.90;99.90;;;;;;5045220;28;20057;-64
2021/06/06 00:08:50;;;;;;;;;;;13.80;99.90;;;;;;5045514;28;20045;-64
2021/06/06 00:11:27;;;;;;;178.73;59.88;;;13.90;99.90;;;;;;5045137;28;19949;-64
2021/06/06 00:13:55;;;;;;;175.27;61.75;;;13.90;99.90;;;;;;5045150;28;20041;-64
2021/06/06 00:16:23;;;;;;;;;;;13.90;99.90;;;;;;5044989;28;20067;-64
2021/06/06 00:18:49;;;;;;;153.07;56.28;;;13.90;99.90;;;;;;5044916;28;20019;-64
2021/06/06 00:21:15;;;;;;;150.90;56.03;;;13.90;99.90;;;;;;5044709;28;20516;-64
2021/06/06 00:23:41;;;;;;;135.45;55.30;;;13.90;99.90;;;;;;5045226;28;20047;-64
2021/06/06 00:26:08;;;;;;;142.57;54.88;;;14.00;99.90;;;;;;5044951;28;20457;-64
2021/06/06 00:28:35;;;;;;;123.32;50.47;;;14.00;99.90;;;;;;5044723;28;20061;-64
2021/06/06 00:31:03;;;;;;;137.75;54.95;;;14.00;99.90;;;;;;5044194;28;20069;-64
2021/06/06 00:33:31;;;;;;;135.70;55.97;;;14.10;99.90;;;;;;5044464;28;20049;-64
2021/06/06 00:35:57;;;;;;;131.73;50.65;;;14.10;99.90;;;;;;5044696;28;20083;-64
2021/06/06 00:38:23;;;;;;;113.43;49.03;;;14.10;99.90;;;;;;5044734;28;20403;-65
2021/06/06 00:40:49;;;;;;;111.43;49.95;;;14.10;99.90;;;;;;5044610;28;20045;-63
2021/06/06 00:43:16;;;;;;;117.13;50.33;;;14.10;99.90;;;;;;5044633;28;20045;-65
2021/06/06 00:45:42;;;;;;;101.38;47.92;;;14.10;99.90;;;;;;5043872;28;20045;-64
2021/06/06 00:48:09;;;;;;;100.68;46.35;;;14.10;99.90;;;;;;5044375;28;20104;-64
2021/06/06 00:50:46;;;;;;;107.82;51.92;;;14.10;99.90;;;;;;5044547;28;20045;-63
2021/06/06 00:53:19;;;;;;;116.55;48.85;;;14.10;99.90;;;;;;5044174;28;20052;-64
2021/06/06 00:55:44;;;;;;;105.32;47.80;;;14.10;99.90;;;;;;5044464;28;20049;-64
2021/06/06 00:58:13;;;;;;;109.55;49.72;;;14.00;99.90;;;;;;5044080;28;20076;-63
2021/06/06 01:00:45;;;;;;;109.38;50.28;;;14.10;99.90;;;;;;5043201;28;20524;-63
2021/06/06 01:03:12;;;;;;;111.70;50.47;;;14.10;99.90;;;;;;5035077;28;20041;-64
2021/06/06 01:05:49;;;;;;;113.90;49.00;;;14.10;99.90;;;;;;5040847;28;20049;-64
2021/06/06 01:08:17;;;;;;;101.43;48.53;;;14.10;99.90;;;;;;5034987;28;20049;-63
2021/06/06 01:10:44;;;;;;;95.68;48.58;;;14.10;99.90;;;;;;5036502;28;20045;-63
2021/06/06 01:13:19;;;;;;;108.22;49.65;;;14.10;99.90;;;;;;5044030;28;20084;-63
2021/06/06 01:15:47;;;;;;;108.40;48.35;;;14.10;99.90;;;;;;5043207;28;20104;-63
2021/06/06 01:18:30;;;;;;;96.50;47.70;;;14.20;99.90;;;;;;5044307;28;20045;-63
2021/06/06 01:21:08;;;;;;;102.85;48.70;;;14.20;99.90;;;;;;5036565;28;20046;-64
2021/06/06 01:23:37;;;;;;;92.88;47.42;;;14.20;99.90;;;;;;5043900;28;20068;-64
2021/06/06 01:26:25;;;;;;;83.53;44.85;;;14.20;99.90;;;;;;5043544;28;20049;-64
2021/06/06 01:28:58;;;;;;;81.65;45.58;;;14.20;99.90;;;;;;5031742;28;20076;-63
2021/06/06 01:31:25;;;;;;;85.30;44.72;;;14.20;99.90;;;;;;5042842;28;20045;-63
2021/06/06 01:34:01;;;;;;;79.32;43.92;;;14.20;99.90;;;;;;5043781;28;20042;-63
2021/06/06 01:36:32;;;;;;;66.22;40.35;;;14.20;99.90;;;;;;5043490;28;20492;-64
2021/06/06 01:39:21;;;;;;;71.13;38.42;;;14.20;99.90;;;;;;5043971;28;20041;-64
2021/06/06 01:41:52;;;;;;;75.05;41.03;;;14.20;99.90;;;;;;5043213;28;20065;-64
2021/06/06 01:44:23;;;;;;;67.43;39.42;;;14.20;99.90;;;;;;5042920;28;20041;-64
2021/06/06 01:47:12;;;;;;;68.47;40.45;;;14.20;99.90;;;;;;5042950;28;20049;-64
2021/06/06 01:49:48;;;;;;;63.30;39.30;;;14.20;99.90;;;;;;5043180;28;20050;-63
2021/06/06 01:52:15;;;;;;;74.43;40.58;;;14.20;99.90;;;;;;5043093;28;20093;-63
2021/06/06 01:54:43;;;;;;;60.67;36.72;;;14.10;99.90;;;;;;5043462;28;20048;-64
2021/06/06 01:57:14;;;;;;;57.28;37.10;;;14.10;99.90;;;;;;5043410;28;20048;-64
2021/06/06 01:59:46;;;;;;;58.67;36.80;;;14.10;99.90;;;;;;5042775;28;20343;-64
2021/06/06 02:02:12;;;;;;;59.58;38.97;;;14.10;99.90;;;;;;5042989;28;20110;-64
2021/06/06 02:04:38;;;;;;;51.35;37.80;;;14.10;99.90;;;;;;5042616;28;20037;-64
2021/06/06 02:07:15;;;;;;;58.40;38.97;;;14.10;99.90;;;;;;5043240;28;20054;-64
2021/06/06 02:09:50;;;;;;;56.67;38.25;;;14.10;99.90;;;;;;5043046;28;20470;-63
2021/06/06 02:12:16;;;;;;;61.35;38.63;;;14.00;99.90;;;;;;5043236;28;20064;-64
2021/06/06 02:14:45;;;;;;;61.00;41.40;;;14.00;99.90;;;;;;5042283;28;20042;-64
2021/06/06 02:17:25;;;;;;;57.67;41.40;;;14.00;99.90;;;;;;5042848;28;20049;-64
2021/06/06 02:19:51;;;;;;;58.67;41.70;;;14.00;99.90;;;;;;5042768;28;20047;-64
2021/06/06 02:22:18;;;;;;;57.58;41.75;;;14.00;99.90;;;;;;5043128;28;20124;-64
2021/06/06 02:24:45;;;;;;;64.13;44.22;;;14.00;99.90;;;;;;5043086;28;20088;-64
2021/06/06 02:27:51;;;;;;;61.25;42.90;;;14.00;99.90;;;;;;5043259;28;20049;-64
2021/06/06 02:30:24;;;;;;;62.67;43.58;;;14.00;99.90;;;;;;5028924;28;20076;-64
2021/06/06 02:33:09;;;;;;;63.15;43.65;;;13.90;99.90;;;;;;5042690;28;20114;-64
2021/06/06 02:35:49;;;;;;;62.80;42.05;;;13.90;99.90;;;;;;5043164;28;20038;-64
2021/06/06 02:38:28;;;;;;;60.92;41.72;;;13.90;99.90;;;;;;5042548;28;20046;-64
2021/06/06 02:41:27;;;;;;;60.75;41.85;;;13.90;99.90;;;;;;5043010;28;20046;-64
2021/06/06 02:43:59;;;;;;;62.50;40.83;;;13.90;99.90;;;;;;5040059;28;20053;-64
2021/06/06 02:46:26;;;;;;;64.25;39.00;;;13.90;99.90;;;;;;5035263;28;20097;-64
2021/06/06 02:48:59;;;;;;;67.30;43.35;;;13.80;99.90;;;;;;5042859;28;20508;-64
2021/06/06 02:51:26;;;;;;;71.78;44.85;;;13.90;99.90;;;;;;5042203;28;20046;-64
2021/06/06 02:54:17;;;;;;;69.75;41.22;;;13.80;99.90;;;;;;5042560;28;20080;-64
2021/06/06 02:56:47;;;;;;;65.57;40.53;;;13.80;99.90;;;;;;5042630;28;20041;-64
2021/06/06 02:59:21;;;;;;;70.78;41.95;;;13.80;99.90;;;;;;5042088;28;20450;-64
2021/06/06 03:01:56;;;;;;;64.88;43.22;;;13.90;99.90;;;;;;5042595;28;20049;-64
2021/06/06 03:04:25;;;;;;;69.13;41.22;;;13.90;99.90;;;;;;5042916;28;20595;-64
2021/06/06 03:07:07;;;;;;;77.03;41.03;;;13.90;99.90;;;;;;5042524;28;20057;-64
2021/06/06 03:09:34;;;;;;;63.03;42.42;;;13.90;99.90;;;;;;5042380;28;20060;-64
2021/06/06 03:12:03;;;;;;;68.13;41.55;;;13.90;99.90;;;;;;5042155;28;20059;-64
2021/06/06 03:14:33;;;;;;;62.45;41.70;;;13.90;99.90;;;;;;5041868;28;20052;-64
2021/06/06 03:17:09;;;;;;;60.83;41.05;;;13.90;99.90;;;;;;5046171;28;20042;-64
2021/06/06 03:19:41;;;;;;;72.00;41.40;;;13.90;99.90;;;;;;5046206;28;20109;-64
2021/06/06 03:22:10;;;;;;;64.00;38.03;;;13.80;99.90;;;;;;5045832;28;20501;-64
2021/06/06 03:24:45;;;;;;;64.35;39.03;;;13.80;99.90;;;;;;5045968;28;20125;-64
2021/06/06 03:27:12;;;;;;;60.78;39.67;;;13.80;99.90;;;;;;5045752;28;20076;-64
2021/06/06 03:30:08;;;;;;;55.20;36.88;;;13.80;99.90;;;;;;5045533;28;20120;-64
2021/06/06 03:32:37;;;;;;;60.80;35.33;;;13.80;99.90;;;;;;5045556;28;20053;-64
2021/06/06 03:35:06;;;;;;;64.47;39.50;;;13.80;99.90;;;;;;5046001;28;20049;-64
2021/06/06 03:37:33;;;;;;;61.13;34.58;;;13.80;99.90;;;;;;5045610;28;20045;-64
2021/06/06 03:39:59;;;;;;;62.80;39.53;;;13.70;99.90;;;;;;5045699;28;20056;-64
2021/06/06 03:42:26;;;;;;;61.85;39.20;;;13.80;99.90;;;;;;5045460;28;20255;-64
2021/06/06 03:44:52;;;;;;;60.58;37.65;;;13.80;99.90;;;;;;5045292;28;20076;-64
2021/06/06 03:47:18;;;;;;;57.03;38.00;;;13.80;99.90;;;;;;5045949;28;20049;-64
2021/06/06 03:49:44;;;;;;;54.30;36.08;;;13.80;99.90;;;;;;5045686;28;20088;-64
2021/06/06 03:52:10;;;;;;;48.60;32.35;;;13.80;99.90;;;;;;5045453;28;20045;-64
2021/06/06 03:54:36;;;;;;;49.75;30.08;;;13.70;99.90;;;;;;5045007;28;20080;-64
2021/06/06 03:57:03;;;;;;;42.88;30.42;;;13.70;99.90;;;;;;5045411;28;20060;-64
2021/06/06 03:59:29;;;;;;;45.15;30.92;;;13.60;99.90;;;;;;5045500;28;20046;-64
2021/06/06 04:01:55;;;;;;;54.95;35.78;;;13.60;99.90;;;;;;5045519;28;20056;-64
2021/06/06 04:04:22;;;;;;;66.93;36.63;;;13.50;99.90;;;;;;5045115;28;20045;-64
2021/06/06 04:06:48;;;;;;;56.92;36.08;;;13.40;99.90;;;;;;5031802;28;20049;-64
2021/06/06 04:09:14;;;;;;;51.70;33.80;;;13.40;99.90;;;;;;5045182;28;20044;-64
2021/06/06 04:11:40;;;;;;;56.20;35.45;;;13.40;99.90;;;;;;5045606;28;20057;-64
2021/06/06 04:14:06;;;;;;;58.13;38.25;;;13.40;99.90;;;;;;5044884;28;20057;-64
2021/06/06 04:16:33;;;;;;;59.90;37.42;;;13.40;99.90;;;;;;5044921;28;20055;-64
2021/06/06 04:18:59;;;;;;;63.80;40.20;;;13.40;99.90;;;;;;5045108;28;20049;-64
2021/06/06 04:21:28;;;;;;;59.90;37.08;;;13.40;99.90;;;;;;5044608;28;20144;-64
2021/06/06 04:23:54;;;;;;;61.78;38.17;;;13.40;99.90;;;;;;5045138;28;20049;-64
2021/06/06 04:26:21;;;;;;;56.17;37.40;;;13.40;99.90;;;;;;5044739;28;20542;-64
2021/06/06 04:28:47;;;;;;;52.23;33.30;;;13.40;99.90;;;;;;5044977;28;20042;-64
2021/06/06 04:31:15;;;;;;;58.13;36.97;;;13.40;99.90;;;;;;5044292;28;20312;-64
2021/06/06 04:33:41;;;;;;;57.13;34.97;;;13.40;99.90;;;;;;5044603;28;20060;-64
2021/06/06 04:36:08;;;;;;;62.22;36.33;;;13.40;99.90;;;;;;5044854;28;20502;-64
2021/06/06 04:38:34;;;;;;;51.67;34.13;;;13.50;99.90;;;;;;5044940;28;20072;-64
2021/06/06 04:41:03;;;;;;;50.70;33.55;;;13.40;99.90;;;;;;5044540;28;20041;-64
2021/06/06 04:43:29;;;;;;;52.60;31.67;;;13.50;99.90;;;;;;5043871;28;20072;-64
2021/06/06 04:45:56;;;;;;;41.03;28.70;;;13.50;99.90;;;;;;5043920;28;20041;-64
2021/06/06 04:48:29;;;;;;;35.13;24.35;;;13.60;99.90;;;;;;5045122;28;20075;-64
2021/06/06 04:51:02;;;;;;;45.15;27.30;;;13.50;99.90;;;;;;5044501;28;20072;-64
2021/06/06 04:53:28;;;;;;;39.30;24.40;;;13.60;99.90;;;;;;5044082;28;20037;-64
2021/06/06 04:55:56;;;;;;;38.95;28.20;;;13.60;99.90;;;;;;5044059;28;20041;-64
2021/06/06 04:58:24;;;;;;;39.92;25.45;;;13.60;99.90;;;;;;5044183;28;20123;-64
2021/06/06 05:00:51;;;;;;;34.85;23.27;;;13.70;99.90;;;;;;5043904;28;20459;-64
2021/06/06 05:03:19;;;;;;;35.78;23.48;;;13.70;99.90;;;;;;5044288;28;20037;-64
2021/06/06 05:05:44;;;;;;;33.72;23.38;;;13.70;99.90;;;;;;5044206;28;20064;-64
2021/06/06 05:08:13;;;;;;;32.42;23.67;;;13.80;99.90;;;;;;5044099;28;20101;-64
2021/06/06 05:10:41;;;;;;;38.53;26.30;;;13.80;99.90;;;;;;5043789;28;20501;-64
2021/06/06 05:13:08;;;;;;;34.53;25.45;;;13.90;99.90;;;;;;5043858;28;20080;-64
2021/06/06 05:15:35;;;;;;;38.70;25.80;;;13.90;99.90;;;;;;5043431;28;20045;-64
2021/06/06 05:18:01;;;;;;;38.25;26.38;;;13.90;99.90;;;;;;5043674;28;20045;-64
2021/06/06 05:20:31;;;;;;;37.63;26.25;;;14.10;99.90;;;;;;5043456;28;20061;-64
2021/06/06 05:22:58;;;;;;;39.70;27.00;;;14.10;99.90;;;;;;5043849;28;20046;-64
2021/06/06 05:25:24;;;;;;;44.17;28.33;;;14.10;99.90;;;;;;5043472;28;20130;-64
2021/06/06 05:27:51;;;;;;;44.85;28.83;;;14.10;99.90;;;;;;5044439;28;20045;-64
2021/06/06 05:30:22;;;;;;;39.28;27.38;;;14.10;99.90;;;;;;5043265;28;20030;-64
2021/06/06 05:32:52;;;;;;;42.95;29.05;;;14.10;99.90;;;;;;5043835;28;20045;-64
2021/06/06 05:35:20;;;;;;;44.20;29.40;;;14.10;99.90;;;;;;5043384;28;20065;-64
2021/06/06 05:37:46;;;;;;;44.72;32.00;;;14.10;99.90;;;;;;5043068;28;20107;-64
2021/06/06 05:40:13;;;;;;;48.60;32.72;;;14.00;99.90;;;;;;5042925;28;20486;-64
2021/06/06 05:42:39;;;;;;;47.47;31.73;;;14.10;99.90;;;;;;5043825;28;20056;-64
2021/06/06 05:45:05;;;;;;;50.50;31.65;;;14.10;99.90;;;;;;5043409;28;20033;-64
2021/06/06 05:47:31;;;;;;;47.50;32.40;;;14.10;99.90;;;;;;5043759;28;20045;-64
2021/06/06 05:49:57;;;;;;;46.47;30.48;;;14.00;99.90;;;;;;5043080;28;20519;-64
2021/06/06 05:52:23;;;;;;;45.97;31.30;;;14.00;99.90;;;;;;5043563;28;20071;-64
2021/06/06 05:54:49;;;;;;;50.10;32.30;;;14.00;99.90;;;;;;5043475;28;20052;-64
2021/06/06 05:57:15;;;;;;;54.47;33.45;;;14.00;99.90;;;;;;5043193;28;20049;-64
2021/06/06 05:59:41;;;;;;;59.28;33.42;;;13.90;99.90;;;;;;5042498;28;20116;-64
2021/06/06 06:02:07;;;;;;;63.30;36.83;;;13.90;99.90;;;;;;5043092;28;20064;-64
2021/06/06 06:04:32;;;;;;;72.40;39.22;;;13.80;99.90;;;;;;5043191;28;20055;-65
2021/06/06 06:06:58;;;;;;;72.05;38.85;;;13.80;99.90;;;;;;5043427;28;20519;-65
2021/06/06 06:09:24;;;;;;;62.50;35.97;;;13.80;99.90;;;;;;5043177;28;20080;-66
2021/06/06 06:11:50;;;;;;;67.47;36.58;;;13.70;99.90;;;;;;5043003;28;20551;-65
2021/06/06 06:14:16;;;;;;;78.72;38.63;;;13.70;99.90;;;;;;5042270;28;20433;-65
2021/06/06 06:16:43;;;;;;;79.07;38.50;;;13.80;99.90;;;;;;5043302;28;20072;-64
2021/06/06 06:19:11;;;;;;;100.07;44.97;;;13.80;99.90;;;;;;5035308;28;20072;-66
2021/06/06 06:21:39;;;;;;;96.72;40.20;;;13.70;99.90;;;;;;5031090;28;20056;-64
2021/06/06 06:24:06;;;;;;;96.63;38.40;;;13.60;99.90;;;;;;5042608;28;20064;-64
2021/06/06 06:26:33;;;;;;;102.32;39.55;;;13.70;99.90;;;;;;5039563;28;20042;-63
2021/06/06 06:29:18;;;;;;;87.15;35.85;;;13.60;99.90;;;;;;5034711;28;20046;-65
2021/06/06 06:31:43;;;;;;;81.45;34.17;;;13.60;99.90;;;;;;5043415;28;20076;-64
2021/06/06 06:34:09;;;;;;;75.55;31.10;;;13.70;99.90;;;;;;5043002;28;20053;-64
2021/06/06 06:36:36;;;;;;;78.43;30.95;;;13.70;99.90;;;;;;5032752;28;20099;-64
2021/06/06 06:39:04;;;;;;;76.25;31.27;;;13.70;99.90;;;;;;5042759;28;20445;-64
2021/06/06 06:41:30;;;;;;;70.05;30.00;;;13.70;99.90;;;;;;5042261;28;20064;-64
2021/06/06 06:43:57;;;;;;;73.90;31.17;;;13.70;99.90;;;;;;5043488;28;20077;-64
2021/06/06 06:46:23;;;;;;;73.20;30.65;;;13.70;99.90;;;;;;5042299;28;20064;-64
2021/06/06 06:48:49;;;;;;;73.93;33.40;;;13.70;99.90;;;;;;5042559;28;20104;-64
2021/06/06 06:51:16;;;;;;;88.13;35.50;;;13.70;99.90;;;;;;5045272;28;20258;-65
2021/06/06 06:53:42;;;;;;;81.72;35.53;;;13.70;99.90;;;;;;5032168;28;20589;-65
2021/06/06 06:56:09;;;;;;;96.40;38.45;;;13.70;99.90;;;;;;5047127;28;20071;-65
2021/06/06 06:58:35;;;;;;;88.00;36.72;;;13.70;99.90;;;;;;5046407;28;20071;-65
2021/06/06 07:01:01;;;;;;;82.50;37.80;;;13.60;99.90;;;;;;5045683;28;20041;-64
2021/06/06 07:03:31;;;;;;;92.22;37.60;;;13.70;99.90;;;;;;5046382;28;20041;-64
2021/06/06 07:05:58;;;;;;;83.82;37.70;;;13.70;99.90;;;;;;5045887;28;20042;-64
2021/06/06 07:08:27;;;;;;;95.20;40.25;;;13.60;99.90;;;;;;5046498;28;20053;-64
2021/06/06 07:10:53;;;;;;;96.82;40.83;;;13.70;99.90;;;;;;5046035;28;20037;-64
2021/06/06 07:13:21;;;;;;;99.43;42.10;;;13.70;99.90;;;;;;5046154;28;20136;-64
2021/06/06 07:15:47;;;;;;;;;;;13.70;99.90;;;;;;5046244;28;20512;-64
2021/06/06 07:18:18;;;;;;;87.63;40.55;;;13.70;99.90;;;;;;5045931;28;19943;-64
2021/06/06 07:20:45;;;;;;;93.88;39.45;;;13.70;99.90;;;;;;5045899;28;20053;-64
2021/06/06 07:23:12;;;;;;;88.95;40.25;;;13.70;99.90;;;;;;5046384;28;20045;-64
2021/06/06 07:25:39;;;;;;;71.82;36.90;;;13.80;99.90;;;;;;5046028;28;20056;-64
2021/06/06 07:28:06;;;;;;;66.72;31.95;;;13.80;99.90;;;;;;5039030;28;20142;-64
2021/06/06 07:30:41;;;;;;;72.57;35.30;;;13.70;99.90;;;;;;5045286;28;20107;-63
2021/06/06 07:33:08;;;;;;;70.18;34.08;;;13.70;99.90;;;;;;5045738;28;20061;-64
2021/06/06 07:35:35;;;;;;;81.43;36.28;;;13.70;99.90;;;;;;5045843;28;20053;-63
2021/06/06 07:38:23;;;;;;;76.00;36.85;;;13.70;99.90;;;;;;5044676;28;20041;-63
2021/06/06 07:40:50;;;;;;;;;;;13.80;99.90;;;;;;5045867;28;20278;-64
2021/06/06 07:43:17;;;;;;;73.05;37.45;;;13.80;99.90;;;;;;5045507;28;20213;-63
2021/06/06 07:45:43;;;;;;;70.88;35.78;;;13.80;99.90;;;;;;5044794;28;20037;-64
2021/06/06 07:48:10;;;;;;;68.85;34.47;;;13.80;99.90;;;;;;5045659;28;20091;-63
2021/06/06 07:50:39;;;;;;;69.85;35.88;;;13.80;99.90;;;;;;5045646;28;20049;-64
2021/06/06 07:53:09;;;;;;;64.60;35.85;;;13.80;99.90;;;;;;5045442;28;20053;-64
2021/06/06 07:55:51;;;;;;;71.10;33.03;;;13.90;99.90;;;;;;5045403;28;20049;-64
2021/06/06 07:58:27;;;;;;;64.50;30.13;;;13.80;99.90;;;;;;5045113;28;20049;-64
2021/06/06 08:00:53;;;;;;;58.10;30.08;;;13.80;99.90;;;;;;5044309;28;20046;-63
2021/06/06 08:03:19;;;;;;;49.50;25.75;;;13.80;99.90;;;;;;5044821;28;20052;-64
2021/06/06 08:05:46;;;;;;;49.00;25.48;;;13.80;99.90;;;;;;5045280;28;20056;-64
2021/06/06 08:08:13;;;;;;;49.30;25.77;;;13.90;99.90;;;;;;5045567;28;20052;-65
2021/06/06 08:10:43;;;;;;;42.90;23.95;;;13.90;99.90;;;;;;5044988;28;20042;-65
2021/06/06 08:13:09;;;;;;;47.58;25.60;;;13.90;99.90;;;;;;5044838;28;20064;-66
2021/06/06 08:15:35;;;;;;;53.55;24.98;;;13.90;99.90;;;;;;5044671;28;20060;-64
2021/06/06 08:18:07;;;;;;;55.38;26.70;;;13.90;99.90;;;;;;5045318;28;20072;-65
2021/06/06 08:20:55;;;;;;;52.38;26.48;;;13.90;99.90;;;;;;5044910;28;20121;-63
2021/06/06 08:23:21;;;;;;;52.33;27.45;;;13.90;99.90;;;;;;5045089;28;20052;-63
2021/06/06 08:25:48;;;;;;;48.47;24.58;;;13.90;99.90;;;;;;5044674;28;20060;-64
2021/06/06 08:28:14;;;;;;;51.28;27.20;;;13.90;99.90;;;;;;5033790;28;20055;-64
2021/06/06 08:30:48;;;;;;;50.92;25.45;;;13.90;99.90;;;;;;5039486;28;20093;-65
2021/06/06 08:33:16;;;;;;;52.28;29.75;;;13.90;99.90;;;;;;5037684;28;20068;-65
2021/06/06 08:35:42;;;;;;;52.05;28.05;;;13.90;99.90;;;;;;5043081;28;20123;-66
2021/06/06 08:38:10;;;;;;;57.72;29.35;;;13.80;99.90;;;;;;5038933;28;20049;-65
2021/06/06 08:40:54;;;;;;;44.72;26.83;;;13.80;99.90;;;;;;5038058;28;20056;-65
2021/06/06 08:43:25;;;;;;;60.40;32.03;;;13.70;99.90;;;;;;5037989;28;20045;-66
2021/06/06 08:45:57;;;;;;;50.40;28.52;;;13.80;99.90;;;;;;5043426;28;20097;-66
2021/06/06 08:48:24;;;;;;;48.17;25.92;;;13.80;99.90;;;;;;5038183;28;20195;-66
2021/06/06 08:51:01;;;;;;;50.72;27.17;;;13.90;99.90;;;;;;5042538;28;20060;-66
2021/06/06 08:53:39;;;;;;;48.30;24.75;;;13.90;99.90;;;;;;5039488;28;20577;-66
2021/06/06 08:56:19;;;;;;;41.45;22.77;;;13.90;99.90;;;;;;5043022;28;20068;-66
2021/06/06 08:58:57;;;;;;;31.55;18.42;;;13.90;99.90;;;;;;5044088;28;20048;-66
2021/06/06 09:01:38;;;;;;;24.52;16.45;;;14.00;99.90;;;;;;5043502;28;20111;-66
2021/06/06 09:04:18;;;;;;;29.38;18.15;;;13.90;99.90;;;;;;5031968;28;20045;-66
2021/06/06 09:06:53;;;;;;;27.95;17.45;;;13.90;99.90;;;;;;5044503;28;20467;-65
2021/06/06 09:09:32;;;;;;;33.80;20.23;;;13.80;99.90;;;;;;5043860;28;20045;-65
2021/06/06 09:12:05;;;;;;;32.67;20.15;;;13.90;99.90;;;;;;5040532;28;20053;-66
2021/06/06 09:14:31;;;;;;;35.55;22.60;;;13.90;99.90;;;;;;5043174;28;20532;-67
2021/06/06 09:17:01;;;;;;;37.95;21.63;;;13.90;99.90;;;;;;5043806;28;20045;-66
2021/06/06 09:20:04;;;;;;;28.92;20.35;;;13.90;99.90;;;;;;5043734;28;20052;-66
2021/06/06 09:22:40;;;;;;;25.80;19.25;;;13.80;99.90;;;;;;5041337;28;20049;-65
2021/06/06 09:25:28;;;;;;;31.45;18.45;;;13.80;99.90;;;;;;5044080;28;20120;-66
2021/06/06 09:28:18;;;;;;;25.63;16.73;;;13.90;99.90;;;;;;5039838;28;20045;-66
2021/06/06 09:30:43;;;;;;;20.42;12.93;;;14.00;99.90;;;;;;5042970;28;20104;-66
2021/06/06 09:33:23;;;;;;;20.42;12.98;;;14.10;99.90;;;;;;5043418;28;20041;-66
2021/06/06 09:35:59;;;;;;;18.58;14.23;;;14.00;99.90;;;;;;5043324;28;20049;-65
2021/06/06 09:38:38;;;;;;;18.98;12.63;;;14.10;99.90;;;;;;5043780;28;20056;-65
2021/06/06 09:41:21;;;;;;;17.30;12.80;;;14.00;99.90;;;;;;5042922;28;20045;-65
2021/06/06 09:44:28;;;;;;;16.35;11.45;;;14.00;99.90;;;;;;5031114;28;20041;-65
2021/06/06 09:46:59;;;;;;;17.30;12.90;;;14.10;99.90;;;;;;5033002;28;20088;-65
2021/06/06 09:49:27;;;;;;;13.68;10.85;;;14.20;99.90;;;;;;5043591;28;20041;-65
2021/06/06 09:51:57;;;;;;;15.15;10.35;;;14.20;99.90;;;;;;5043329;28;20071;-65
2021/06/06 09:54:33;;;;;;;10.98;8.50;;;14.20;99.90;;;;;;5043103;28;20070;-65
2021/06/06 09:57:01;;;;;;;9.85;7.72;;;14.20;99.90;;;;;;5043137;28;20120;-66
2021/06/06 09:59:38;;;;;;;8.88;7.45;;;14.20;99.90;;;;;;5042640;28;20049;-67
2021/06/06 10:02:14;;;;;;;7.75;6.70;;;14.20;99.90;;;;;;5043069;28;20034;-67
2021/06/06 10:04:42;;;;;;;10.45;8.55;;;14.10;99.90;;;;;;5043776;28;20060;-66
2021/06/06 10:07:15;;;;;;;8.90;7.68;;;14.30;99.90;;;;;;5043404;28;20041;-67
2021/06/06 10:09:50;;;;;;;11.88;7.47;;;14.30;99.90;;;;;;5043201;28;20545;-67
2021/06/06 10:12:42;;;;;;;9.25;7.75;;;14.30;99.90;;;;;;5042804;28;20049;-66
2021/06/06 10:15:34;;;;;;;7.20;5.70;;;14.30;99.90;;;;;;5042389;28;20048;-66
2021/06/06 10:18:14;;;;;;;8.27;6.38;;;14.30;99.90;;;;;;5038798;28;20517;-66
2021/06/06 10:20:43;;;;;;;6.68;5.90;;;14.20;99.90;;;;;;5042704;28;20037;-66
2021/06/06 10:23:19;;;;;;;10.55;6.90;;;14.20;99.90;;;;;;5043129;28;20110;-66
2021/06/06 10:26:14;;;;;;;7.50;6.25;;;14.20;99.90;;;;;;5045517;28;20101;-66
2021/06/06 10:28:48;;;;;;;7.07;5.65;;;14.30;99.90;;;;;;5021178;28;20072;-66
2021/06/06 10:31:23;;;;;;;7.75;5.55;;;14.40;99.90;;;;;;5046279;28;20045;-66
2021/06/06 10:33:56;;;;;;;5.97;5.38;;;14.40;99.90;;;;;;5047054;28;20065;-66
2021/06/06 10:36:27;;;;;;;6.95;6.25;;;14.30;99.90;;;;;;5046681;28;20132;-66
2021/06/06 10:38:54;;;;;;;5.88;5.28;;;14.30;99.90;;;;;;5046774;28;20045;-66
2021/06/06 10:41:36;;;;;;;7.90;6.30;;;14.40;99.90;;;;;;5046858;28;20069;-66
2021/06/06 10:44:23;;;;;;;7.53;5.88;;;14.30;99.90;;;;;;5046942;28;20327;-66
2021/06/06 10:46:54;;;;;;;6.50;5.60;;;14.30;99.90;;;;;;5046579;28;20478;-65
2021/06/06 10:49:21;;;;;;;5.45;4.90;;;14.30;99.90;;;;;;5046712;28;20405;-65
2021/06/06 10:51:52;;;;;;;6.93;6.10;;;14.30;99.90;;;;;;5046549;28;20041;-65
2021/06/06 10:54:48;;;;;;;7.82;6.80;;;14.30;99.90;;;;;;5046435;28;20049;-65
2021/06/06 10:57:25;;;;;;;5.90;5.30;;;14.30;99.90;;;;;;5030746;28;20072;-65
2021/06/06 11:00:20;;;;;;;9.45;6.93;;;14.20;99.90;;;;;;5046219;28;20049;-65
2021/06/06 11:03:00;;;;;;;6.70;6.00;;;14.30;99.90;;;;;;5032449;28;20064;-65
2021/06/06 11:05:44;;;;;;;9.85;6.85;;;14.30;99.90;;;;;;5046285;28;20065;-65
2021/06/06 11:08:17;;;;;;;9.10;7.35;;;14.20;99.90;;;;;;5046482;28;20497;-64
2021/06/06 11:10:43;;;;;;;9.15;7.90;;;14.30;99.90;;;;;;5045977;28;20592;-64
2021/06/06 11:13:34;;;;;;;9.80;7.88;;;14.40;99.90;;;;;;5046098;28;20513;-64
2021/06/06 11:16:18;;;;;;;13.02;8.70;;;14.30;99.90;;;;;;5032012;28;20057;-63
2021/06/06 11:18:50;;;;;;;13.60;10.13;;;14.30;99.90;;;;;;5045682;28;20417;-64
2021/06/06 11:21:27;;;;;;;14.68;11.07;;;14.30;99.90;;;;;;5045951;28;20099;-63
2021/06/06 11:23:58;;;;;;;14.05;11.80;;;14.30;99.90;;;;;;5046194;28;20049;-64
2021/06/06 11:26:32;;;;;;;14.93;13.20;;;14.30;99.90;;;;;;5041599;28;20120;-64
2021/06/06 11:29:20;;;;;;;15.43;11.45;;;14.20;99.90;;;;;;5037648;28;20101;-65
2021/06/06 11:32:10;;;;;;;15.23;11.60;;;14.20;99.90;;;;;;5045949;28;20049;-64
2021/06/06 11:34:39;;;;;;;15.90;12.65;;;14.10;99.90;;;;;;5045437;28;20042;-65
2021/06/06 11:37:08;;;;;;;16.27;12.60;;;14.10;99.90;;;;;;5045872;28;20053;-64
2021/06/06 11:39:40;;;;;;;19.15;11.88;;;14.10;99.90;;;;;;5045574;28;20413;-64
2021/06/06 11:42:25;;;;;;;18.17;13.27;;;14.10;99.90;;;;;;5040697;28;20049;-65
2021/06/06 11:44:51;;;;;;;16.25;12.32;;;14.20;99.90;;;;;;5045196;28;20068;-64
2021/06/06 11:47:45;;;;;;;13.30;9.98;;;14.20;99.90;;;;;;5045964;28;20041;-64
2021/06/06 11:50:20;;;;;;;20.65;11.90;;;14.10;99.90;;;;;;5041238;28;20445;-64
2021/06/06 11:53:09;;;;;;;18.85;12.40;;;14.10;99.90;;;;;;5045581;28;20511;-64
2021/06/06 11:55:42;;;;;;;17.77;11.52;;;14.20;99.90;;;;;;5044481;28;20100;-63
2021/06/06 11:58:14;;;;;;;20.45;12.63;;;14.20;99.90;;;;;;5045654;28;20511;-64
2021/06/06 12:00:49;;;;;;;20.27;11.70;;;14.30;99.90;;;;;;5044613;28;20083;-64
2021/06/06 12:03:26;;;;;;;14.75;10.98;;;14.30;99.90;;;;;;5045967;28;20045;-65
2021/06/06 12:06:02;;;;;;;20.27;13.60;;;14.30;99.90;;;;;;5045605;28;20049;-65
2021/06/06 12:08:43;;;;;;;19.33;12.43;;;14.30;99.90;;;;;;5045559;28;20041;-63
2021/06/06 12:11:24;;;;;;;17.08;11.27;;;14.20;99.90;;;;;;5024895;28;20054;-65
2021/06/06 12:14:07;;;;;;;18.80;11.63;;;14.10;99.90;;;;;;5044723;28;20046;-65
2021/06/06 12:16:33;;;;;;;14.45;10.18;;;14.10;99.90;;;;;;5045099;28;20048;-64
2021/06/06 12:19:06;;;;;;;20.02;11.77;;;14.10;99.90;;;;;;5045043;28;20037;-63
2021/06/06 12:21:36;;;;;;;20.10;12.05;;;14.00;99.90;;;;;;5045375;28;20057;-64
2021/06/06 12:24:05;;;;;;;24.17;13.55;;;14.10;99.90;;;;;;5044847;28;20045;-64
2021/06/06 12:26:35;;;;;;;18.98;11.75;;;14.10;99.90;;;;;;5044611;28;20049;-63
2021/06/06 12:29:02;;;;;;;22.27;15.63;;;14.10;99.90;;;;;;5044810;28;20049;-64
2021/06/06 12:31:41;;;;;;;22.23;15.38;;;14.10;99.90;;;;;;5043010;28;20053;-64
2021/06/06 12:34:25;;;;;;;35.17;17.30;;;14.10;99.90;;;;;;5044848;28;20056;-64
2021/06/06 12:37:00;;;;;;;25.52;14.40;;;14.20;99.90;;;;;;5031724;28;20091;-64
2021/06/06 12:39:26;;;;;;;29.75;15.40;;;14.10;99.90;;;;;;5044619;28;20041;-64
2021/06/06 12:41:55;;;;;;;32.45;15.93;;;14.30;99.90;;;;;;5044436;28;20045;-64
2021/06/06 12:44:26;;;;;;;22.50;13.48;;;14.30;99.90;;;;;;5043994;28;20422;-64
2021/06/06 12:46:57;;;;;;;23.98;13.32;;;14.40;99.90;;;;;;5044137;28;20041;-64
2021/06/06 12:49:40;;;;;;;26.08;14.48;;;14.60;99.90;;;;;;5044155;28;20485;-64
2021/06/06 12:52:40;;;;;;;19.55;12.55;;;14.50;99.90;;;;;;5044864;28;20056;-64